createdAt,value
2018-08-18T00:00:28.362Z,17.14
2018-08-18T00:01:08.739Z,17.18
2018-08-18T00:01:49.172Z,17.14
2018-08-18T00:02:29.576Z,17.14
2018-08-18T00:03:09.928Z,17.15
2018-08-18T00:03:50.370Z,17.12
2018-08-18T00:04:30.760Z,17.17
2018-08-18T00:05:11.159Z,17.24
2018-08-18T00:05:51.552Z,17.27
2018-08-18T00:06:31.946Z,17.24
2018-08-18T00:07:12.312Z,17.21
2018-08-18T00:07:52.754Z,17.17
2018-08-18T00:08:33.096Z,17.15
2018-08-18T00:09:13.544Z,17.12
2018-08-18T00:09:53.919Z,17.25
2018-08-18T00:10:34.333Z,17.12
2018-08-18T00:11:14.758Z,17.12
2018-08-18T00:11:55.102Z,17.14
2018-08-18T00:12:35.516Z,17.22
2018-08-18T00:13:15.988Z,17.12
2018-08-18T00:13:56.304Z,17.14
2018-08-18T00:14:36.708Z,17.09
2018-08-18T00:15:17.132Z,17.09
2018-08-18T00:15:57.591Z,17.12
2018-08-18T00:16:37.929Z,17.06
2018-08-18T00:17:18.331Z,17
2018-08-18T00:17:58.688Z,17.02
2018-08-18T00:18:39.137Z,16.99
2018-08-18T00:19:19.518Z,17
2018-08-18T00:19:59.920Z,16.92
2018-08-18T00:20:40.296Z,17
2018-08-18T00:21:20.733Z,16.98
2018-08-18T00:22:01.087Z,17.05
2018-08-18T00:22:41.516Z,17
2018-08-18T00:23:21.816Z,17
2018-08-18T00:24:02.255Z,17.06
2018-08-18T00:24:42.660Z,17.07
2018-08-18T00:25:23.059Z,17.1
2018-08-18T00:26:03.395Z,17.14
2018-08-18T00:26:43.797Z,17.17
2018-08-18T00:27:24.211Z,17.2
2018-08-18T00:28:04.613Z,17.14
2018-08-18T00:28:45.030Z,17.14
2018-08-18T00:29:25.419Z,17.14
2018-08-18T00:30:05.806Z,17.12
2018-08-18T00:30:46.214Z,17.1
2018-08-18T00:31:26.599Z,17.14
2018-08-18T00:32:07.013Z,17.15
2018-08-18T00:32:47.434Z,17.21
2018-08-18T00:33:27.803Z,17.25
2018-08-18T00:34:08.236Z,17.24
2018-08-18T00:34:48.635Z,17.22
2018-08-18T00:35:28.977Z,17.21
2018-08-18T00:36:09.389Z,17.22
2018-08-18T00:36:49.799Z,17.18
2018-08-18T00:37:30.259Z,17.15
2018-08-18T00:38:10.669Z,17.15
2018-08-18T00:38:51.013Z,17.15
2018-08-18T00:39:31.408Z,17.22
2018-08-18T00:40:11.801Z,17.17
2018-08-18T00:40:52.231Z,17.15
2018-08-18T00:41:32.648Z,17.18
2018-08-18T00:42:13.011Z,17.2
2018-08-18T00:42:53.448Z,17.14
2018-08-18T00:43:33.806Z,17.09
2018-08-18T00:44:14.239Z,17.17
2018-08-18T00:44:54.631Z,17.17
2018-08-18T00:45:35.026Z,17.06
2018-08-18T00:46:15.480Z,17.15
2018-08-18T00:46:55.833Z,17.03
2018-08-18T00:47:36.235Z,16.95
2018-08-18T00:48:16.723Z,17
2018-08-18T00:48:57.079Z,16.92
2018-08-18T00:49:37.446Z,16.91
2018-08-18T00:50:17.874Z,16.9
2018-08-18T00:50:58.284Z,16.84
2018-08-18T00:51:38.668Z,16.8
2018-08-18T00:52:19.036Z,16.81
2018-08-18T00:52:59.397Z,16.78
2018-08-18T00:53:39.834Z,16.72
2018-08-18T00:54:20.245Z,16.69
2018-08-18T00:55:00.628Z,16.65
2018-08-18T00:55:41.072Z,16.55
2018-08-18T00:56:21.444Z,16.67
2018-08-18T00:57:01.853Z,16.6
2018-08-18T00:57:42.251Z,16.5
2018-08-18T00:58:22.655Z,16.55
2018-08-18T00:59:03.046Z,16.51
2018-08-18T00:59:43.399Z,16.62
2018-08-18T01:00:23.796Z,16.48
2018-08-18T01:01:04.154Z,16.54
2018-08-18T01:01:44.554Z,16.45
2018-08-18T01:02:24.989Z,16.42
2018-08-18T01:03:05.362Z,16.51
2018-08-18T01:03:45.783Z,16.44
2018-08-18T01:04:26.165Z,16.41
2018-08-18T01:05:06.532Z,16.44
2018-08-18T01:05:46.962Z,16.32
2018-08-18T01:06:27.325Z,16.47
2018-08-18T01:07:07.749Z,16.37
2018-08-18T01:07:48.158Z,16.4
2018-08-18T01:08:28.522Z,16.33
2018-08-18T01:09:08.921Z,16.29
2018-08-18T01:09:49.321Z,16.3
2018-08-18T01:10:29.747Z,16.3
2018-08-18T01:11:10.208Z,16.27
2018-08-18T01:11:50.684Z,16.29
2018-08-18T01:12:31.083Z,16.25
2018-08-18T01:13:11.326Z,16.3
2018-08-18T01:13:51.829Z,16.26
2018-08-18T01:14:32.270Z,16.26
2018-08-18T01:15:12.476Z,16.27
2018-08-18T01:15:52.915Z,16.16
2018-08-18T01:16:33.326Z,16.18
2018-08-18T01:17:13.790Z,16.25
2018-08-18T01:17:54.229Z,16.16
2018-08-18T01:18:34.601Z,16.18
2018-08-18T01:19:14.942Z,16.13
2018-08-18T01:19:55.420Z,16.14
2018-08-18T01:20:35.778Z,16.14
2018-08-18T01:21:16.214Z,16.25
2018-08-18T01:21:56.623Z,16.16
2018-08-18T01:22:36.943Z,16.07
2018-08-18T01:23:17.329Z,16.14
2018-08-18T01:23:57.732Z,16.08
2018-08-18T01:25:55.571Z,16.14
2018-08-18T01:26:36.375Z,16.22
2018-08-18T01:27:16.780Z,16.11
2018-08-18T01:27:57.226Z,16.1
2018-08-18T01:28:37.654Z,16.11
2018-08-18T01:29:17.987Z,16.08
2018-08-18T01:29:58.428Z,16.08
2018-08-18T01:30:38.803Z,16.06
2018-08-18T01:31:19.216Z,16.03
2018-08-18T01:31:59.569Z,16.06
2018-08-18T01:32:39.939Z,16.06
2018-08-18T01:33:20.331Z,16.06
2018-08-18T01:34:00.736Z,16.06
2018-08-18T01:34:41.114Z,16.01
2018-08-18T01:35:21.542Z,16.06
2018-08-18T01:36:01.941Z,15.96
2018-08-18T01:36:42.332Z,16.04
2018-08-18T01:37:22.758Z,16.04
2018-08-18T01:38:03.141Z,15.92
2018-08-18T01:38:43.571Z,15.92
2018-08-18T01:39:23.932Z,15.99
2018-08-18T01:40:04.382Z,15.92
2018-08-18T01:40:44.735Z,15.92
2018-08-18T01:41:25.166Z,15.92
2018-08-18T01:42:05.526Z,15.96
2018-08-18T01:42:45.940Z,15.98
2018-08-18T01:43:26.346Z,15.93
2018-08-18T01:44:06.730Z,15.93
2018-08-18T01:44:47.110Z,15.92
2018-08-18T01:45:27.494Z,15.96
2018-08-18T01:46:07.910Z,15.93
2018-08-18T01:46:48.277Z,15.92
2018-08-18T01:47:28.677Z,15.86
2018-08-18T01:48:09.067Z,15.93
2018-08-18T01:48:49.451Z,15.88
2018-08-18T01:49:29.842Z,15.92
2018-08-18T01:50:10.242Z,15.92
2018-08-18T01:50:50.641Z,15.91
2018-08-18T01:51:31.065Z,15.95
2018-08-18T01:52:11.440Z,15.92
2018-08-18T01:52:51.920Z,15.89
2018-08-18T01:53:32.256Z,15.85
2018-08-18T01:54:12.660Z,15.86
2018-08-18T01:54:53.085Z,15.8
2018-08-18T01:55:33.480Z,15.85
2018-08-18T01:56:13.816Z,15.85
2018-08-18T01:56:54.223Z,15.81
2018-08-18T01:57:34.641Z,15.81
2018-08-18T01:58:15.032Z,15.88
2018-08-18T01:58:55.392Z,15.85
2018-08-18T01:59:35.789Z,15.8
2018-08-18T02:00:16.169Z,15.85
2018-08-18T02:00:56.555Z,15.78
2018-08-18T02:01:36.953Z,15.81
2018-08-18T02:02:17.402Z,15.81
2018-08-18T02:02:57.789Z,15.84
2018-08-18T02:03:38.204Z,15.85
2018-08-18T02:04:18.552Z,15.88
2018-08-18T02:04:59.002Z,15.96
2018-08-18T02:06:46.547Z,15.99
2018-08-18T02:07:26.937Z,15.92
2018-08-18T02:08:07.350Z,15.95
2018-08-18T02:08:47.788Z,15.89
2018-08-18T02:09:28.100Z,15.98
2018-08-18T02:10:08.542Z,15.88
2018-08-18T02:10:48.976Z,15.85
2018-08-18T02:11:29.345Z,15.86
2018-08-18T02:12:09.749Z,15.85
2018-08-18T02:12:50.180Z,15.8
2018-08-18T02:13:30.524Z,15.8
2018-08-18T02:14:10.948Z,15.84
2018-08-18T02:14:51.402Z,15.8
2018-08-18T02:15:31.699Z,15.85
2018-08-18T02:16:12.120Z,15.78
2018-08-18T02:16:52.467Z,15.88
2018-08-18T02:17:32.915Z,15.81
2018-08-18T02:18:13.299Z,15.88
2018-08-18T02:18:53.678Z,15.84
2018-08-18T02:19:34.114Z,15.81
2018-08-18T02:20:14.512Z,15.74
2018-08-18T02:20:54.867Z,15.78
2018-08-18T02:21:35.275Z,15.76
2018-08-18T02:22:15.721Z,15.73
2018-08-18T02:22:56.127Z,15.77
2018-08-18T02:23:36.478Z,15.67
2018-08-18T02:24:16.846Z,15.76
2018-08-18T02:24:57.262Z,15.76
2018-08-18T02:25:37.654Z,15.7
2018-08-18T02:26:18.065Z,15.74
2018-08-18T02:26:58.499Z,15.7
2018-08-18T02:27:38.843Z,15.74
2018-08-18T02:28:19.259Z,15.84
2018-08-18T02:28:59.697Z,15.76
2018-08-18T02:29:40.065Z,15.76
2018-08-18T02:30:20.481Z,15.78
2018-08-18T02:31:00.829Z,15.77
2018-08-18T02:31:41.250Z,15.74
2018-08-18T02:32:21.685Z,15.73
2018-08-18T02:33:02.016Z,15.73
2018-08-18T02:33:42.452Z,15.73
2018-08-18T02:34:22.838Z,15.71
2018-08-18T02:35:03.304Z,15.8
2018-08-18T02:35:43.663Z,15.73
2018-08-18T02:36:24.079Z,15.68
2018-08-18T02:37:04.453Z,15.76
2018-08-18T02:37:44.883Z,15.73
2018-08-18T02:38:25.250Z,15.76
2018-08-18T02:39:05.673Z,15.71
2018-08-18T02:39:46.105Z,15.71
2018-08-18T02:40:26.493Z,15.74
2018-08-18T02:41:06.874Z,15.7
2018-08-18T02:41:47.325Z,15.74
2018-08-18T02:42:27.690Z,15.71
2018-08-18T02:43:08.084Z,15.73
2018-08-18T02:43:48.509Z,15.7
2018-08-18T02:44:28.903Z,15.67
2018-08-18T02:45:09.319Z,15.73
2018-08-18T02:45:49.693Z,15.73
2018-08-18T02:46:30.086Z,15.66
2018-08-18T02:47:10.532Z,15.73
2018-08-18T02:47:50.853Z,15.6
2018-08-18T02:48:31.277Z,15.66
2018-08-18T02:49:11.671Z,15.6
2018-08-18T02:49:52.048Z,15.59
2018-08-18T02:50:32.437Z,15.6
2018-08-18T02:51:12.840Z,15.64
2018-08-18T02:51:53.281Z,15.59
2018-08-18T02:52:33.684Z,15.6
2018-08-18T02:53:14.078Z,15.59
2018-08-18T02:53:54.516Z,15.66
2018-08-18T02:54:34.881Z,15.55
2018-08-18T02:55:15.276Z,15.56
2018-08-18T02:55:55.682Z,15.48
2018-08-18T02:56:36.138Z,15.52
2018-08-18T02:57:16.503Z,15.51
2018-08-18T02:57:56.921Z,15.53
2018-08-18T02:58:37.352Z,15.52
2018-08-18T02:59:17.783Z,15.52
2018-08-18T02:59:58.189Z,15.53
2018-08-18T03:00:38.592Z,15.53
2018-08-18T03:01:18.987Z,15.53
2018-08-18T03:01:59.368Z,15.52
2018-08-18T03:02:39.812Z,15.52
2018-08-18T03:03:20.159Z,15.55
2018-08-18T03:04:00.563Z,15.41
2018-08-18T03:04:40.985Z,15.51
2018-08-18T03:05:21.395Z,15.43
2018-08-18T03:06:01.786Z,15.52
2018-08-18T03:06:42.190Z,15.46
2018-08-18T03:07:22.625Z,15.48
2018-08-18T03:08:03.019Z,15.46
2018-08-18T03:08:43.376Z,15.4
2018-08-18T03:09:23.779Z,15.4
2018-08-18T03:10:04.183Z,15.43
2018-08-18T03:10:44.602Z,15.43
2018-08-18T03:11:25.013Z,15.41
2018-08-18T03:12:05.428Z,15.44
2018-08-18T03:12:45.823Z,15.35
2018-08-18T03:13:26.272Z,15.38
2018-08-18T03:14:06.673Z,15.43
2018-08-18T03:14:47.088Z,15.38
2018-08-18T03:15:27.460Z,15.41
2018-08-18T03:16:07.883Z,15.31
2018-08-18T03:16:48.357Z,15.38
2018-08-18T03:17:28.670Z,15.44
2018-08-18T03:18:09.047Z,15.43
2018-08-18T03:18:49.432Z,15.38
2018-08-18T03:19:29.844Z,15.4
2018-08-18T03:20:10.288Z,15.38
2018-08-18T03:20:50.691Z,15.41
2018-08-18T03:21:31.069Z,15.37
2018-08-18T03:22:11.465Z,15.38
2018-08-18T03:22:51.914Z,15.34
2018-08-18T03:23:32.271Z,15.38
2018-08-18T03:24:12.689Z,15.41
2018-08-18T03:24:53.041Z,15.38
2018-08-18T03:25:33.546Z,15.38
2018-08-18T03:26:13.840Z,15.3
2018-08-18T03:26:54.326Z,15.3
2018-08-18T03:27:34.643Z,15.38
2018-08-18T03:28:15.028Z,15.31
2018-08-18T03:28:55.483Z,15.3
2018-08-18T03:29:35.817Z,15.28
2018-08-18T03:30:16.235Z,15.33
2018-08-18T03:30:56.683Z,15.34
2018-08-18T03:31:37.100Z,15.37
2018-08-18T03:32:17.450Z,15.33
2018-08-18T03:32:57.886Z,15.22
2018-08-18T03:33:38.275Z,15.28
2018-08-18T03:34:18.697Z,15.22
2018-08-18T03:34:59.025Z,15.27
2018-08-18T03:35:39.438Z,15.33
2018-08-18T03:36:19.815Z,15.28
2018-08-18T03:37:00.220Z,15.28
2018-08-18T03:37:40.667Z,15.31
2018-08-18T03:38:21.024Z,15.25
2018-08-18T03:39:01.457Z,15.19
2018-08-18T03:39:41.850Z,15.28
2018-08-18T03:40:22.206Z,15.22
2018-08-18T03:41:02.620Z,15.22
2018-08-18T03:41:43.035Z,15.31
2018-08-18T03:42:23.413Z,15.3
2018-08-18T03:43:03.872Z,15.22
2018-08-18T03:43:44.206Z,15.23
2018-08-18T03:45:42.961Z,15.18
2018-08-18T03:46:22.361Z,15.22
2018-08-18T03:47:02.721Z,15.19
2018-08-18T03:47:43.175Z,15.2
2018-08-18T03:48:23.536Z,15.16
2018-08-18T03:49:04.010Z,15.2
2018-08-18T03:49:44.377Z,15.2
2018-08-18T03:50:24.808Z,15.19
2018-08-18T03:51:05.200Z,15.16
2018-08-18T03:51:45.592Z,15.13
2018-08-18T03:52:26.078Z,15.16
2018-08-18T03:53:06.451Z,15.12
2018-08-18T03:53:46.808Z,15.16
2018-08-18T03:54:27.208Z,15.15
2018-08-18T03:55:07.609Z,15.15
2018-08-18T03:55:48.060Z,15.11
2018-08-18T03:56:28.460Z,15.15
2018-08-18T03:57:08.814Z,15.19
2018-08-18T03:57:49.277Z,15.18
2018-08-18T03:58:29.739Z,15.09
2018-08-18T03:59:10.072Z,15.16
2018-08-18T03:59:50.425Z,15.01
2018-08-18T04:00:30.821Z,15
2018-08-18T04:01:11.241Z,15.03
2018-08-18T04:01:51.614Z,15.04
2018-08-18T04:02:32.010Z,15
2018-08-18T04:03:12.402Z,15.05
2018-08-18T04:03:52.893Z,15.05
2018-08-18T04:04:33.252Z,15.03
2018-08-18T04:05:13.679Z,15.03
2018-08-18T04:05:54.070Z,15
2018-08-18T04:06:34.459Z,14.97
2018-08-18T04:07:14.863Z,15.03
2018-08-18T04:07:55.279Z,14.97
2018-08-18T04:08:35.642Z,14.97
2018-08-18T04:09:16.139Z,14.97
2018-08-18T04:09:56.425Z,15.03
2018-08-18T04:10:36.881Z,14.97
2018-08-18T04:11:17.246Z,14.87
2018-08-18T04:11:57.641Z,14.93
2018-08-18T04:12:38.034Z,15
2018-08-18T04:13:18.420Z,14.9
2018-08-18T04:13:58.824Z,14.87
2018-08-18T04:14:39.214Z,14.91
2018-08-18T04:15:19.668Z,14.93
2018-08-18T04:16:00.073Z,14.95
2018-08-18T04:16:40.461Z,14.87
2018-08-18T04:17:20.862Z,14.86
2018-08-18T04:18:01.269Z,14.83
2018-08-18T04:18:41.761Z,14.83
2018-08-18T04:19:22.149Z,14.78
2018-08-18T04:20:02.534Z,14.82
2018-08-18T04:20:42.912Z,14.82
2018-08-18T04:21:23.330Z,14.74
2018-08-18T04:22:03.769Z,14.85
2018-08-18T04:23:54.184Z,14.85
2018-08-18T04:24:33.278Z,14.85
2018-08-18T04:25:13.739Z,14.71
2018-08-18T04:25:54.109Z,14.74
2018-08-18T04:26:34.556Z,14.72
2018-08-18T04:27:14.900Z,14.72
2018-08-18T05:09:45.726Z,15.8
2018-08-18T05:10:26.178Z,15.86
2018-08-18T05:11:06.573Z,15.93
2018-08-18T05:11:47.132Z,15.99
2018-08-18T05:12:27.409Z,16.07
2018-08-18T05:13:07.797Z,16.13
2018-08-18T05:13:48.186Z,16.32
2018-08-18T05:14:28.638Z,16.33
2018-08-18T05:15:09.011Z,16.44
2018-08-18T05:15:49.380Z,16.48
2018-08-18T05:16:29.829Z,16.5
2018-08-18T05:17:10.221Z,16.59
2018-08-18T05:17:50.612Z,16.82
2018-08-18T05:18:31.032Z,16.96
2018-08-18T05:19:11.444Z,17.15
2018-08-18T05:19:51.827Z,17.2
2018-08-18T05:20:32.273Z,17.4
2018-08-18T05:21:12.627Z,17.4
2018-08-18T05:21:53.088Z,17.53
2018-08-18T05:22:33.475Z,17.63
2018-08-18T05:23:13.868Z,17.79
2018-08-18T05:23:54.267Z,17.91
2018-08-18T05:24:34.683Z,17.95
2018-08-18T05:25:15.036Z,18.13
2018-08-18T05:25:55.459Z,18.21
2018-08-18T05:26:35.841Z,18.35
2018-08-18T05:29:17.014Z,18.84
2018-08-18T05:29:57.224Z,18.89
2018-08-18T05:30:37.623Z,19.05
2018-08-18T05:31:18.041Z,19.13
2018-08-18T05:31:58.457Z,19.32
2018-08-18T05:32:38.830Z,19.5
2018-08-18T05:33:19.227Z,19.6
2018-08-18T05:33:59.654Z,19.7
2018-08-18T05:34:40.073Z,19.85
2018-08-18T05:35:20.433Z,19.92
2018-08-18T05:36:00.868Z,19.97
2018-08-18T05:36:41.278Z,20.04
2018-08-18T05:37:21.690Z,20.05
2018-08-18T05:38:02.114Z,20.04
2018-08-18T05:38:42.490Z,20.12
2018-08-18T05:39:22.912Z,20.23
2018-08-18T05:40:03.328Z,20.34
2018-08-18T05:40:43.734Z,20.56
2018-08-18T05:41:24.143Z,20.6
2018-08-18T05:42:04.510Z,20.69
2018-08-18T05:42:44.970Z,20.68
2018-08-18T05:43:25.361Z,20.82
2018-08-18T05:44:05.793Z,20.81
2018-08-18T05:44:46.171Z,20.71
2018-08-18T05:45:26.610Z,20.68
2018-08-18T05:46:06.983Z,20.42
2018-08-18T05:46:47.420Z,20.26
2018-08-18T05:47:27.878Z,20.25
2018-08-18T05:48:08.220Z,20.33
2018-08-18T05:48:48.644Z,20.46
2018-08-18T05:49:29.063Z,20.41
2018-08-18T05:50:09.478Z,20.41
2018-08-18T05:50:49.894Z,20.48
2018-08-18T05:51:30.310Z,20.66
2018-08-18T05:52:10.777Z,20.81
2018-08-18T05:52:51.214Z,21.05
2018-08-18T05:54:45.035Z,21.46
2018-08-18T05:55:25.112Z,21.66
2018-08-18T05:56:05.500Z,21.77
2018-08-18T05:56:45.932Z,21.91
2018-08-18T05:57:26.319Z,22.01
2018-08-18T05:58:06.736Z,22.24
2018-08-18T05:58:47.134Z,22.38
2018-08-18T05:59:27.548Z,22.54
2018-08-18T06:00:08.017Z,22.79
2018-08-18T06:00:48.424Z,22.94
2018-08-18T06:01:28.803Z,23.06
2018-08-18T06:02:09.299Z,23.15
2018-08-18T06:02:49.645Z,23.26
2018-08-18T06:03:30.068Z,23.41
2018-08-18T06:04:10.503Z,23.59
2018-08-18T06:04:50.882Z,23.64
2018-08-18T06:05:31.361Z,23.79
2018-08-18T06:06:11.807Z,23.9
2018-08-18T06:06:52.249Z,23.94
2018-08-18T06:07:32.650Z,24.15
2018-08-18T06:08:13.080Z,24.18
2018-08-18T06:08:53.415Z,24.26
2018-08-18T06:09:33.911Z,24.51
2018-08-18T06:10:14.238Z,24.68
2018-08-18T06:10:54.634Z,24.59
2018-08-18T06:11:35.033Z,24.8
2018-08-18T06:12:15.436Z,24.75
2018-08-18T06:12:55.819Z,24.93
2018-08-18T06:13:36.258Z,25.07
2018-08-18T06:14:16.622Z,25.19
2018-08-18T06:14:57.053Z,25.38
2018-08-18T06:15:37.482Z,25.53
2018-08-18T06:16:17.877Z,25.6
2018-08-18T06:16:58.276Z,25.69
2018-08-18T06:17:38.730Z,25.91
2018-08-18T06:18:19.133Z,26.04
2018-08-18T06:18:59.541Z,26.28
2018-08-18T06:19:39.939Z,26.19
2018-08-18T06:20:20.356Z,26.36
2018-08-18T06:21:00.714Z,26.32
2018-08-18T06:21:41.122Z,26.41
2018-08-18T06:22:21.512Z,26.56
2018-08-18T06:23:01.937Z,26.59
2018-08-18T06:25:17.844Z,26.68
2018-08-18T06:26:00.913Z,26.73
2018-08-18T06:26:41.264Z,26.79
2018-08-18T06:27:21.747Z,26.84
2018-08-18T06:28:02.174Z,26.79
2018-08-18T06:28:42.571Z,26.98
2018-08-18T06:29:23.089Z,26.86
2018-08-18T06:30:03.435Z,26.83
2018-08-18T06:30:43.860Z,26.83
2018-08-18T06:31:24.273Z,26.86
2018-08-18T06:32:04.615Z,26.86
2018-08-18T06:32:45.085Z,26.9
2018-08-18T06:33:25.492Z,26.84
2018-08-18T06:34:05.897Z,26.91
2018-08-18T06:34:46.439Z,26.9
2018-08-18T06:35:26.742Z,26.9
2018-08-18T06:36:07.247Z,26.88
2018-08-18T06:36:47.591Z,26.94
2018-08-18T06:37:28.015Z,27.02
2018-08-18T06:38:08.383Z,27.12
2018-08-18T06:38:48.829Z,27.09
2018-08-18T06:39:29.258Z,27.15
2018-08-18T06:40:09.680Z,27.33
2018-08-18T06:40:50.072Z,27.38
2018-08-18T06:41:30.503Z,27.55
2018-08-18T06:42:10.843Z,27.58
2018-08-18T06:42:51.281Z,27.53
2018-08-18T06:43:31.666Z,27.55
2018-08-18T06:44:12.148Z,27.5
2018-08-18T06:44:52.560Z,27.42
2018-08-18T06:45:32.925Z,27.43
2018-08-18T06:46:13.344Z,27.39
2018-08-18T06:46:53.822Z,27.55
2018-08-18T06:50:43.387Z,27.43
2018-08-18T06:53:33.955Z,27.27
2018-08-18T06:54:19.609Z,27.25
2018-08-18T06:55:00.206Z,27.08
2018-08-18T06:55:40.466Z,27.08
2018-08-18T06:56:20.829Z,27.18
2018-08-18T06:57:01.364Z,27.39
2018-08-18T06:57:41.613Z,27.34
2018-08-18T06:58:22.131Z,27.34
2018-08-18T06:59:02.489Z,27.39
2018-08-18T06:59:42.886Z,27.39
2018-08-18T07:00:23.292Z,27.4
2018-08-18T07:01:03.691Z,27.48
2018-08-18T07:01:44.140Z,27.49
2018-08-18T07:02:24.546Z,27.46
2018-08-18T07:03:04.935Z,27.5
2018-08-18T07:03:45.339Z,27.69
2018-08-18T07:04:25.741Z,27.62
2018-08-18T07:05:06.151Z,27.81
2018-08-18T07:05:46.637Z,27.9
2018-08-18T07:06:26.961Z,27.84
2018-08-18T07:07:07.369Z,27.81
2018-08-18T07:07:47.772Z,27.87
2018-08-18T07:08:28.277Z,28.05
2018-08-18T07:09:08.625Z,28.02
2018-08-18T07:09:49.011Z,28.05
2018-08-18T07:10:29.549Z,28.24
2018-08-18T07:11:09.941Z,28.17
2018-08-18T07:11:50.628Z,28.2
2018-08-18T07:12:31.006Z,28.18
2018-08-18T07:13:11.319Z,28.23
2018-08-18T07:13:51.723Z,28.24
2018-08-18T07:14:32.113Z,28.21
2018-08-18T07:15:12.564Z,28.32
2018-08-18T07:17:07.398Z,28.23
2018-08-18T07:18:55.826Z,28.33
2018-08-18T07:19:36.384Z,28.45
2018-08-18T07:20:16.792Z,28.48
2018-08-18T07:20:57.210Z,28.51
2018-08-18T07:21:37.648Z,28.58
2018-08-18T07:22:17.986Z,28.72
2018-08-18T07:22:58.456Z,28.76
2018-08-18T07:23:38.811Z,28.82
2018-08-18T07:24:19.251Z,28.77
2018-08-18T07:24:59.648Z,28.83
2018-08-18T07:25:40.046Z,28.83
2018-08-18T07:26:20.449Z,28.82
2018-08-18T07:27:00.899Z,28.91
2018-08-18T07:27:41.329Z,28.92
2018-08-18T07:28:21.852Z,29.03
2018-08-18T07:29:02.461Z,29.08
2018-08-18T07:29:42.778Z,29.21
2018-08-18T07:30:23.160Z,29.03
2018-08-18T07:31:03.584Z,29.11
2018-08-18T07:31:44.006Z,29.23
2018-08-18T07:32:24.347Z,29.35
2018-08-18T07:33:04.821Z,29.41
2018-08-18T07:33:45.182Z,29.44
2018-08-18T07:34:25.588Z,29.52
2018-08-18T07:35:06.007Z,29.51
2018-08-18T07:35:46.415Z,29.58
2018-08-18T07:36:26.834Z,29.57
2018-08-18T07:37:07.286Z,29.62
2018-08-18T07:37:47.608Z,29.7
2018-08-18T07:38:28.004Z,29.69
2018-08-18T07:39:08.554Z,29.79
2018-08-18T07:39:48.851Z,29.82
2018-08-18T07:40:29.252Z,29.71
2018-08-18T07:41:09.700Z,29.73
2018-08-18T07:41:50.073Z,29.78
2018-08-18T07:42:30.492Z,29.78
2018-08-18T07:43:10.862Z,29.86
2018-08-18T07:43:51.340Z,29.89
2018-08-18T07:44:31.739Z,29.95
2018-08-18T07:45:12.156Z,30.06
2018-08-18T07:45:52.520Z,30.11
2018-08-18T07:46:32.909Z,30.13
2018-08-18T07:47:13.349Z,30.15
2018-08-18T07:47:53.726Z,30.25
2018-08-18T07:48:34.109Z,30.16
2018-08-18T07:49:14.542Z,30.26
2018-08-18T07:49:55.011Z,30.23
2018-08-18T07:50:35.510Z,30.44
2018-08-18T07:51:15.887Z,30.54
2018-08-18T07:51:56.336Z,30.61
2018-08-18T07:52:36.733Z,30.73
2018-08-18T07:53:17.318Z,30.73
2018-08-18T07:53:57.569Z,30.75
2018-08-18T07:54:38.011Z,30.78
2018-08-18T07:55:18.453Z,30.94
2018-08-18T07:55:58.814Z,30.81
2018-08-18T07:56:39.225Z,30.85
2018-08-18T07:57:19.641Z,30.91
2018-08-18T07:58:00.089Z,30.82
2018-08-18T07:58:40.516Z,30.81
2018-08-18T08:00:37.528Z,30.85
2018-08-18T08:01:18.275Z,30.76
2018-08-18T08:01:58.559Z,30.81
2018-08-18T08:02:38.961Z,30.81
2018-08-18T08:03:19.351Z,30.73
2018-08-18T08:03:59.750Z,30.56
2018-08-18T08:04:40.274Z,30.57
2018-08-18T08:05:20.620Z,30.45
2018-08-18T08:06:00.974Z,30.38
2018-08-18T08:06:41.473Z,30.23
2018-08-18T08:07:22.017Z,30.29
2018-08-18T08:08:02.399Z,30.19
2018-08-18T08:08:42.770Z,30.28
2018-08-18T08:09:23.175Z,30.28
2018-08-18T08:10:03.561Z,30.26
2018-08-18T08:10:44.011Z,30.26
2018-08-18T08:11:24.436Z,30.46
2018-08-18T08:12:04.796Z,30.57
2018-08-18T08:12:45.292Z,30.63
2018-08-18T08:13:25.616Z,30.75
2018-08-18T08:14:06.015Z,30.81
2018-08-18T08:14:46.534Z,30.82
2018-08-18T08:15:26.927Z,30.91
2018-08-18T08:16:07.363Z,30.9
2018-08-18T08:16:47.703Z,30.9
2018-08-18T08:17:28.167Z,30.94
2018-08-18T08:18:08.631Z,30.83
2018-08-18T08:18:48.987Z,30.7
2018-08-18T08:19:29.418Z,30.73
2018-08-18T08:20:09.836Z,30.81
2018-08-18T08:20:50.240Z,30.85
2018-08-18T08:21:30.667Z,30.94
2018-08-18T08:22:11.113Z,31.03
2018-08-18T08:22:51.481Z,31.05
2018-08-18T08:23:31.929Z,31.18
2018-08-18T08:24:12.325Z,31.27
2018-08-18T08:24:52.735Z,31.25
2018-08-18T08:25:33.112Z,31.41
2018-08-18T08:26:13.531Z,31.46
2018-08-18T08:26:53.968Z,31.59
2018-08-18T08:27:34.407Z,31.57
2018-08-18T08:28:14.781Z,31.64
2018-08-18T08:28:55.228Z,31.76
2018-08-18T08:29:35.704Z,31.78
2018-08-18T08:30:16.145Z,31.91
2018-08-18T08:30:56.607Z,31.92
2018-08-18T08:31:37.300Z,32.05
2018-08-18T08:32:17.769Z,32.13
2018-08-18T08:32:58.280Z,32.1
2018-08-18T08:33:38.776Z,32.25
2018-08-18T08:34:19.231Z,32.22
2018-08-18T08:34:59.957Z,32.22
2018-08-18T08:35:40.489Z,32.1
2018-08-18T08:36:20.968Z,31.87
2018-08-18T08:37:01.690Z,31.85
2018-08-18T08:37:42.097Z,31.87
2018-08-18T08:38:22.597Z,31.9
2018-08-18T08:39:03.057Z,31.88
2018-08-18T08:39:43.597Z,31.88
2018-08-18T08:40:24.559Z,31.65
2018-08-18T08:41:05.977Z,31.64
2018-08-18T08:41:46.402Z,31.57
2018-08-18T08:42:27.115Z,31.79
2018-08-18T08:43:07.778Z,31.74
2018-08-18T08:43:48.085Z,31.95
2018-08-18T08:44:28.731Z,32.1
2018-08-18T08:45:09.132Z,32.24
2018-08-18T08:45:49.599Z,32.31
2018-08-18T08:46:30.135Z,32.32
2018-08-18T08:47:10.570Z,32.41
2018-08-18T08:47:51.261Z,32.49
2018-08-18T08:48:31.923Z,32.49
2018-08-18T08:49:12.482Z,32.62
2018-08-18T08:49:53.112Z,32.68
2018-08-18T08:50:33.886Z,32.51
2018-08-18T08:51:14.094Z,32.62
2018-08-18T08:51:54.871Z,32.53
2018-08-18T08:52:35.432Z,32.62
2018-08-18T08:53:16.794Z,32.65
2018-08-18T08:53:57.242Z,32.73
2018-08-18T08:54:37.691Z,32.83
2018-08-18T08:55:18.757Z,32.99
2018-08-18T08:55:58.845Z,33
2018-08-18T08:56:39.280Z,33.06
2018-08-18T08:57:19.983Z,33.26
2018-08-18T08:58:00.126Z,33.21
2018-08-18T08:58:40.587Z,33.33
2018-08-18T08:59:21.002Z,33.45
2018-08-18T09:00:01.519Z,33.5
2018-08-18T09:00:41.966Z,33.45
2018-08-18T09:01:22.431Z,33.49
2018-08-18T09:02:03.747Z,33.45
2018-08-18T09:02:44.251Z,33.45
2018-08-18T09:03:25.505Z,33.15
2018-08-18T09:04:05.902Z,33.09
2018-08-18T09:04:46.451Z,33
2018-08-18T09:05:26.896Z,32.9
2018-08-18T09:06:07.807Z,32.96
2018-08-18T09:06:48.459Z,33.06
2018-08-18T09:07:28.938Z,33.14
2018-08-18T09:08:09.367Z,33.34
2018-08-18T09:08:50.211Z,33.31
2018-08-18T09:09:30.710Z,33.45
2018-08-18T09:10:11.203Z,33.52
2018-08-18T09:10:51.531Z,33.6
2018-08-18T09:11:31.981Z,33.79
2018-08-18T09:12:12.429Z,33.86
2018-08-18T09:12:53.144Z,33.87
2018-08-18T09:13:33.356Z,33.96
2018-08-18T09:14:15.662Z,34
2018-08-18T09:14:56.894Z,33.97
2018-08-18T09:15:36.846Z,34.11
2018-08-18T09:16:17.271Z,34.12
2018-08-18T09:16:58.091Z,34.14
2018-08-18T09:17:38.795Z,34.18
2018-08-18T09:18:19.214Z,34.12
2018-08-18T09:19:00.337Z,34.18
2018-08-18T09:19:41.092Z,34.43
2018-08-18T09:20:21.742Z,34.42
2018-08-18T09:21:02.161Z,34.46
2018-08-18T09:21:42.734Z,34.6
2018-08-18T09:22:23.255Z,34.65
2018-08-18T09:23:04.273Z,34.71
2018-08-18T09:23:44.480Z,34.73
2018-08-18T09:24:25.005Z,34.76
2018-08-18T09:25:05.443Z,34.84
2018-08-18T09:25:45.969Z,34.95
2018-08-18T09:26:26.451Z,34.95
2018-08-18T09:27:06.869Z,35.21
2018-08-18T09:27:47.304Z,35.31
2018-08-18T09:28:27.697Z,35.32
2018-08-18T09:29:08.115Z,35.47
2018-08-18T09:29:48.656Z,35.31
2018-08-18T09:30:29.113Z,35.25
2018-08-18T09:31:09.461Z,35.24
2018-08-18T09:34:56.370Z,34.76
2018-08-18T09:35:39.312Z,34.72
2018-08-18T09:36:18.721Z,34.86
2018-08-18T09:36:59.096Z,34.95
2018-08-18T09:37:39.500Z,34.95
2018-08-18T09:43:20.301Z,35.54
2018-08-18T09:44:00.674Z,35.59
2018-08-18T09:44:41.054Z,35.65
2018-08-18T09:45:21.488Z,35.62
2018-08-18T09:46:01.891Z,35.64
2018-08-18T09:46:42.313Z,35.74
2018-08-18T09:47:22.731Z,35.62
2018-08-18T09:48:03.256Z,35.68
2018-08-18T09:48:43.695Z,35.5
2018-08-18T09:49:24.087Z,35.56
2018-08-18T09:50:04.531Z,35.55
2018-08-18T09:50:45.053Z,35.36
2018-08-18T09:51:25.448Z,35.36
2018-08-18T09:52:05.837Z,35.24